Current Weather

Scottsdale

Scottsdale, Arizona (KSDL)

Report from: Monday, August 15, 2022 5:53 PM MST
Current time: Monday, August 15, 2022 6:57 PM MST

Nearby weather
Weather history
Weather forecast

Temperature36.7°C (98.1°F)
Heat index36.6°C (98.0°F)
Dew point15.0°C (59.0°F)
Winds 6 kts (3.1 m/s, 6.9 mph) Vrb
Winds variableWinds variable
Visibility10 mi. (16.1 km)
Clouds Sky clear
Altimeter29.78 in.Hg (1008 mB)
Relative humidity28 %
Density altitude2,850 ft. (869 m)
Sea-level pressure100.6 kPa (1006 mB, 29.70 in.Hg)
Remarks System requires maintenance
Automated weather observing station with precipitation discriminator
Flight conditions Visual Meteorological Conditions
Raw dataKSDL 160053Z VRB06KT 10SM CLR 37/15 A2978 RMK AO2 SLP056 T03670150 $
An error has occurred. This application may no longer respond until reloaded. Reload 🗙